Time;durP1;ratioP1;P1;durP2;ratioP2;P2;SDS_P1;SDS_P2;PMS_P1;PMS_P2;Temp;Humidity;BMP_temperature;BMP_pressure;BME280_temperature;BME280_humidity;BME280_pressure;Samples;Min_cycle;Max_cycle;Signal;HPM_P1;HPM_P2
2021/11/07 00:00:19;;;;;;;;;;;;;;;15.73;58.46;100864.06;2105756;27;20260;-64
2021/11/07 00:04:45;;;;;;;;;;;;;;;15.75;58.47;100861.19;2104867;27;20317;-63
2021/11/07 00:06:29;;;;;;;;;;;;;;;15.73;58.45;100857.75;2106801;27;19922;-64
2021/11/07 00:07:25;;;;;;;;;;;;;;;15.72;58.29;100856.00;2092120;28;20382;-63
2021/11/07 00:11:01;;;;;;;;;;;;;;;15.72;58.30;100851.44;2105764;27;19920;-63
2021/11/07 00:12:12;;;;;;;;;;;;;;;15.73;58.38;100849.59;2108375;27;20018;-63
2021/11/07 00:14:17;;;;;;;;;;;;;;;15.72;58.34;100848.69;2120319;27;19911;-66
2021/11/07 00:15:18;;;;;;;;;;;;;;;15.72;58.40;100845.97;2121967;27;19911;-67
2021/11/07 00:16:28;;;;;;;;;;;;;;;15.73;58.46;100846.88;2120316;27;19911;-66
2021/11/07 00:17:30;;;;;;;;;;;;;;;15.72;58.47;100839.69;2121533;27;19938;-66
2021/11/07 00:18:39;;;;;;;;;;;;;;;15.72;58.33;100840.56;2121700;27;19951;-66
2021/11/07 00:19:44;;;;;;;;;;;;;;;15.73;58.31;100842.31;2121702;27;19923;-66
2021/11/07 00:20:52;;;;;;;;;;;;;;;15.72;58.42;100845.97;2119063;27;19911;-66
2021/11/07 00:22:02;;;;;;;;;;;;;;;15.71;58.48;100844.25;2120436;27;19919;-66
2021/11/07 00:23:56;;;;;;;;;;;;;;;15.72;58.48;100843.28;2121959;27;20388;-66
2021/11/07 00:24:52;;;;;;;;;;;;;;;15.72;58.42;100845.97;2110675;27;19911;-66
2021/11/07 00:25:57;;;;;;;;;;;;;;;15.71;58.30;100843.41;2118042;27;19941;-66
2021/11/07 00:28:48;;;;;;;;;;;;;;;15.71;58.33;100844.25;2075138;28;20353;-67
2021/11/07 00:29:49;;;;;;;;;;;;;;;15.70;58.35;100831.63;2121679;27;20291;-67
2021/11/07 00:37:12;;;;;;;;;;;;;;;15.71;58.25;100817.06;2121571;27;20023;-67
2021/11/07 00:38:25;;;;;;;;;;;;;;;15.70;58.33;100823.47;2121614;27;19980;-67
2021/11/07 00:39:41;;;;;;;;;;;;;;;15.70;58.35;100823.47;2114324;27;20266;-66
2021/11/07 00:42:23;;;;;;;;;;;;;;;15.71;58.27;100811.66;2079979;28;20004;-66
2021/11/07 00:43:39;;;;;;;;;;;;;;;15.71;58.22;100810.78;2113766;27;19912;-66
2021/11/07 00:46:18;;;;;;;;;;;;;;;15.71;58.41;100805.34;2071913;28;19909;-66
2021/11/07 00:48:28;;;;;;;;;;;;;;;15.69;58.24;100797.25;2119968;27;20417;-66
2021/11/07 00:55:46;;;;;;;;;;;;;;;15.69;58.25;100805.41;2121291;27;19942;-66
2021/11/07 00:56:50;;;;;;;;;;;;;;;15.69;58.23;100801.81;2111195;28;20508;-66
2021/11/07 00:59:59;;;;;;;;;;;;;;;15.69;58.34;100796.41;2115855;27;19941;-66
2021/11/07 01:01:06;;;;;;;;;;;;;;;15.69;58.27;100802.69;2114869;27;20374;-65
2021/11/07 01:02:09;;;;;;;;;;;;;;;15.68;58.42;100798.25;2119599;27;19920;-66
2021/11/07 01:03:20;;;;;;;;;;;;;;;15.69;58.35;100797.25;2111656;28;19960;-65
2021/11/07 01:04:21;;;;;;;;;;;;;;;15.69;58.35;100805.41;2113562;27;20321;-66
2021/11/07 01:05:26;;;;;;;;;;;;;;;15.69;58.29;100805.41;2120438;27;20010;-65
2021/11/07 01:06:26;;;;;;;;;;;;;;;15.69;58.41;100805.41;2118733;27;19947;-66
2021/11/07 01:07:27;;;;;;;;;;;;;;;15.69;58.38;100808.13;2105488;28;19923;-66
2021/11/07 01:08:27;;;;;;;;;;;;;;;15.69;58.25;100813.56;2109440;28;19926;-66
2021/11/07 01:09:27;;;;;;;;;;;;;;;15.70;58.25;100815.31;2117825;27;19911;-66
2021/11/07 01:10:30;;;;;;;;;;;;;;;15.70;58.32;100814.47;2121592;27;19911;-66
2021/11/07 01:11:30;;;;;;;;;;;;;;;15.69;58.50;100808.13;2110485;27;19916;-65
2021/11/07 01:12:31;;;;;;;;;;;;;;;15.68;58.37;100811.84;2111762;28;19919;-66
2021/11/07 01:13:32;;;;;;;;;;;;;;;15.68;58.41;100803.69;2116629;27;19923;-66
2021/11/07 01:14:32;;;;;;;;;;;;;;;15.69;58.29;100808.13;2115156;27;19976;-65
2021/11/07 01:15:33;;;;;;;;;;;;;;;15.68;58.39;100806.41;2107585;28;19920;-66
2021/11/07 01:16:33;;;;;;;;;;;;;;;15.69;58.43;100812.69;2121550;27;20405;-67
2021/11/07 01:17:34;;;;;;;;;;;;;;;15.68;58.36;100814.56;2118240;27;19911;-66
2021/11/07 01:18:40;;;;;;;;;;;;;;;15.68;58.42;100810.94;2121804;27;19918;-66
2021/11/07 01:19:42;;;;;;;;;;;;;;;15.68;58.37;100817.28;2115307;27;19950;-66
2021/11/07 01:20:42;;;;;;;;;;;;;;;15.67;58.43;100814.66;2115655;27;19924;-66
2021/11/07 01:21:44;;;;;;;;;;;;;;;15.67;58.31;100820.09;2117284;27;20421;-67
2021/11/07 01:22:57;;;;;;;;;;;;;;;15.67;58.35;100818.25;2122499;27;20531;-67
2021/11/07 01:24:02;;;;;;;;;;;;;;;15.68;58.30;100816.38;2118860;27;19922;-67
2021/11/07 01:25:04;;;;;;;;;;;;;;;15.67;58.34;100820.94;2120651;27;19915;-67
2021/11/07 01:26:19;;;;;;;;;;;;;;;15.68;58.36;100817.28;2122246;27;20406;-67
2021/11/07 01:27:28;;;;;;;;;;;;;;;15.67;58.31;100814.66;2118043;27;20392;-66
2021/11/07 01:28:35;;;;;;;;;;;;;;;15.67;58.42;100820.94;2120592;27;19950;-66
2021/11/07 01:29:41;;;;;;;;;;;;;;;15.67;58.36;100822.81;2119729;27;20737;-67
2021/11/07 01:30:53;;;;;;;;;;;;;;;15.67;58.42;100826.38;2121995;27;19915;-67
2021/11/07 01:31:55;;;;;;;;;;;;;;;15.68;58.34;100827.25;2119450;27;19915;-67
2021/11/07 01:33:11;;;;;;;;;;;;;;;15.68;58.39;100820.00;2120219;27;20338;-67
2021/11/07 01:34:20;;;;;;;;;;;;;;;15.68;58.25;100811.84;2112005;28;19929;-67
2021/11/07 01:36:14;;;;;;;;;;;;;;;15.68;58.37;100806.41;2112176;28;19915;-67
2021/11/07 01:36:57;;;;;;;;;;;;;;;15.65;58.39;100790.28;2102825;27;19937;-67
2021/11/07 01:39:14;;;;;;;;;;;;;;;15.67;58.19;100784.75;2121590;27;19918;-67
2021/11/07 01:40:18;;;;;;;;;;;;;;;15.65;58.32;100780.31;2118515;27;19944;-67
2021/11/07 01:41:24;;;;;;;;;;;;;;;15.64;58.36;100781.28;2110522;28;20280;-67
2021/11/07 01:43:28;;;;;;;;;;;;;;;15.66;58.35;100789.34;2121438;27;19912;-67
2021/11/07 01:44:56;;;;;;;;;;;;;;;15.67;58.31;100782.03;2118559;27;20310;-67
2021/11/07 01:46:06;;;;;;;;;;;;;;;15.67;58.29;100787.47;2115722;27;19919;-67
2021/11/07 01:47:06;;;;;;;;;;;;;;;15.66;58.31;100792.06;2120553;27;19915;-67
2021/11/07 01:48:17;;;;;;;;;;;;;;;15.66;58.22;100794.78;2109036;28;20001;-67
2021/11/07 01:49:22;;;;;;;;;;;;;;;15.65;58.28;100796.63;2105811;28;20015;-67
2021/11/07 01:50:22;;;;;;;;;;;;;;;15.66;58.19;100794.78;2119127;28;19919;-67
2021/11/07 01:51:24;;;;;;;;;;;;;;;15.67;58.36;100793.78;2120075;27;19921;-67
2021/11/07 01:52:27;;;;;;;;;;;;;;;15.65;58.22;100801.16;2113040;28;20354;-67
2021/11/07 01:53:37;;;;;;;;;;;;;;;15.66;58.28;100802.91;2117985;28;19976;-67
2021/11/07 01:54:58;;;;;;;;;;;;;;;15.66;58.37;100808.34;2121157;28;19919;-67
2021/11/07 01:56:00;;;;;;;;;;;;;;;15.65;58.30;100801.16;2113936;28;19911;-67
2021/11/07 01:57:00;;;;;;;;;;;;;;;15.65;58.27;100803.88;2119618;28;19960;-67
2021/11/07 01:58:02;;;;;;;;;;;;;;;15.65;58.33;100803.88;2121594;28;20043;-67
2021/11/07 01:59:02;;;;;;;;;;;;;;;15.66;58.12;100808.34;2121743;28;19911;-67
2021/11/07 02:00:09;;;;;;;;;;;;;;;15.65;58.28;100807.50;2118160;28;19920;-67
2021/11/07 02:01:10;;;;;;;;;;;;;;;15.65;58.27;100806.59;2116085;28;20385;-67
2021/11/07 02:02:13;;;;;;;;;;;;;;;15.64;58.21;100811.16;2121193;28;19920;-67
2021/11/07 02:03:13;;;;;;;;;;;;;;;15.65;58.19;100812.03;2118807;27;19912;-67
2021/11/07 02:04:13;;;;;;;;;;;;;;;15.65;58.24;100817.47;2118410;27;19972;-67
2021/11/07 02:05:14;;;;;;;;;;;;;;;15.63;58.32;100814.03;2116347;27;20002;-67
2021/11/07 02:06:14;;;;;;;;;;;;;;;15.64;58.31;100816.59;2121203;27;19911;-67
2021/11/07 02:07:14;;;;;;;;;;;;;;;15.64;58.23;100815.75;2107882;28;19961;-67
2021/11/07 02:08:17;;;;;;;;;;;;;;;15.64;58.23;100815.75;2110102;28;19923;-67
2021/11/07 02:09:17;;;;;;;;;;;;;;;15.64;58.20;100815.75;2120759;27;19961;-67
2021/11/07 02:10:18;;;;;;;;;;;;;;;15.63;58.16;100814.88;2123190;27;19969;-67
2021/11/07 02:11:19;;;;;;;;;;;;;;;15.64;58.08;100811.16;2122056;27;19942;-67
2021/11/07 02:12:19;;;;;;;;;;;;;;;15.64;58.30;100815.75;2119595;27;19919;-66
2021/11/07 02:13:20;;;;;;;;;;;;;;;15.64;58.16;100815.75;2119432;27;19911;-66
2021/11/07 02:14:21;;;;;;;;;;;;;;;15.65;58.29;100822.91;2118746;27;19922;-65
2021/11/07 02:15:22;;;;;;;;;;;;;;;15.64;58.22;100816.59;2123363;27;19922;-65
2021/11/07 02:16:22;;;;;;;;;;;;;;;15.64;58.15;100821.19;2122800;27;19916;-66
2021/11/07 02:17:22;;;;;;;;;;;;;;;15.65;58.15;100833.78;2121154;27;19923;-66
2021/11/07 02:18:23;;;;;;;;;;;;;;;15.65;58.25;100828.34;2122983;27;19960;-66
2021/11/07 02:19:23;;;;;;;;;;;;;;;15.64;58.29;100826.63;2122115;27;19976;-66
2021/11/07 02:20:29;;;;;;;;;;;;;;;15.64;58.23;100823.91;2123112;27;19915;-66
2021/11/07 02:21:30;;;;;;;;;;;;;;;15.64;58.19;100824.75;2123073;27;19916;-66
2021/11/07 02:22:31;;;;;;;;;;;;;;;15.65;58.30;100825.63;2118454;27;19920;-66
2021/11/07 02:23:41;;;;;;;;;;;;;;;15.64;58.19;100821.19;2119123;27;19938;-66
2021/11/07 02:24:41;;;;;;;;;;;;;;;15.64;58.17;100811.16;2113517;28;19923;-66
2021/11/07 02:25:43;;;;;;;;;;;;;;;15.64;58.15;100815.75;2112793;28;20449;-66
2021/11/07 02:26:49;;;;;;;;;;;;;;;15.62;58.17;100810.41;2122463;27;19911;-66
2021/11/07 02:27:49;;;;;;;;;;;;;;;15.63;58.12;100814.03;2123307;27;20408;-66
2021/11/07 02:28:49;;;;;;;;;;;;;;;15.64;58.21;100818.47;2121310;27;20301;-67
2021/11/07 02:29:51;;;;;;;;;;;;;;;15.63;58.25;100808.59;2123216;27;20014;-67
2021/11/07 02:30:54;;;;;;;;;;;;;;;15.63;58.15;100804.00;2107449;28;19920;-68
2021/11/07 02:31:57;;;;;;;;;;;;;;;15.63;58.15;100808.59;2111895;27;19970;-67
2021/11/07 02:33:01;;;;;;;;;;;;;;;15.62;58.13;100801.41;2123124;27;19915;-67
2021/11/07 02:34:01;;;;;;;;;;;;;;;15.63;58.23;100808.59;2119745;27;19912;-68
2021/11/07 02:35:02;;;;;;;;;;;;;;;15.62;58.23;100804.09;2120495;27;19959;-68
2021/11/07 02:36:04;;;;;;;;;;;;;;;15.62;58.15;100801.41;2123010;27;19919;-67
2021/11/07 02:37:04;;;;;;;;;;;;;;;15.62;58.23;100801.41;2115049;27;20339;-67
2021/11/07 02:38:05;;;;;;;;;;;;;;;15.61;58.21;100795.09;2116362;27;20275;-67
2021/11/07 02:39:05;;;;;;;;;;;;;;;15.62;58.22;100812.25;2117742;27;20035;-67
2021/11/07 02:40:07;;;;;;;;;;;;;;;15.62;58.17;100806.81;2122485;27;19915;-67
2021/11/07 02:41:08;;;;;;;;;;;;;;;15.62;58.28;100801.41;2120036;27;20362;-68
2021/11/07 02:42:09;;;;;;;;;;;;;;;15.61;58.22;100800.53;2114200;28;19978;-65
2021/11/07 02:43:09;;;;;;;;;;;;;;;15.62;58.22;100798.69;2113838;28;19911;-66
2021/11/07 02:44:09;;;;;;;;;;;;;;;15.62;58.23;100799.53;2122583;27;19911;-66
2021/11/07 02:45:12;;;;;;;;;;;;;;;15.62;58.26;100793.25;2123362;27;19915;-66
2021/11/07 02:46:17;;;;;;;;;;;;;;;15.61;58.28;100786.09;2122125;27;19922;-66
2021/11/07 02:47:17;;;;;;;;;;;;;;;15.61;58.03;100777.94;2123489;27;19922;-65
2021/11/07 02:48:18;;;;;;;;;;;;;;;15.60;58.29;100787.91;2113975;28;19916;-66
2021/11/07 02:49:19;;;;;;;;;;;;;;;15.59;58.08;100786.19;2113454;28;19920;-66
2021/11/07 02:50:20;;;;;;;;;;;;;;;15.61;58.16;100786.09;2114434;28;19982;-66
2021/11/07 02:51:25;;;;;;;;;;;;;;;15.61;58.18;100783.38;2110785;27;19920;-66
2021/11/07 02:52:25;;;;;;;;;;;;;;;15.60;58.11;100777.03;2122381;27;20103;-66
2021/11/07 02:53:25;;;;;;;;;;;;;;;15.60;58.14;100782.47;2123031;27;20075;-67
2021/11/07 02:54:26;;;;;;;;;;;;;;;15.60;58.11;100781.59;2118125;27;19919;-66
2021/11/07 02:55:27;;;;;;;;;;;;;;;15.59;58.12;100786.19;2122007;27;19992;-66
2021/11/07 02:56:27;;;;;;;;;;;;;;;15.60;58.17;100787.03;2117433;27;19915;-66
2021/11/07 02:57:27;;;;;;;;;;;;;;;15.60;58.08;100787.03;2123458;27;19912;-66
2021/11/07 02:58:31;;;;;;;;;;;;;;;15.60;58.08;100792.47;2113141;28;20152;-66
2021/11/07 02:59:33;;;;;;;;;;;;;;;15.61;58.12;100783.38;2108726;28;19916;-66
2021/11/07 03:00:34;;;;;;;;;;;;;;;15.61;58.22;100791.50;2115724;27;19911;-67
2021/11/07 03:01:35;;;;;;;;;;;;;;;15.60;58.09;100787.91;2111041;28;20011;-66
2021/11/07 03:02:36;;;;;;;;;;;;;;;15.61;58.14;100783.38;2114912;28;19926;-66
2021/11/07 03:03:36;;;;;;;;;;;;;;;15.61;58.10;100775.22;2121519;27;19915;-67
2021/11/07 03:04:37;;;;;;;;;;;;;;;15.61;58.07;100780.66;2122960;27;19923;-67
2021/11/07 03:05:38;;;;;;;;;;;;;;;15.60;58.11;100782.47;2123989;27;19915;-67
2021/11/07 03:06:38;;;;;;;;;;;;;;;15.60;58.02;100778.88;2122865;27;20224;-66
2021/11/07 03:07:42;;;;;;;;;;;;;;;15.60;57.98;100778.88;2122770;27;19938;-66
2021/11/07 03:08:43;;;;;;;;;;;;;;;15.59;58.04;100774.44;2121946;27;20301;-66
2021/11/07 03:09:44;;;;;;;;;;;;;;;15.60;58.10;100770.72;2107362;28;19923;-66
2021/11/07 03:10:44;;;;;;;;;;;;;;;15.59;58.12;100767.16;2104414;28;20331;-66
2021/11/07 03:11:45;;;;;;;;;;;;;;;15.59;58.18;100763.56;2108788;28;19924;-66
2021/11/07 03:12:46;;;;;;;;;;;;;;;15.58;58.19;100765.44;2123688;27;19923;-66
2021/11/07 03:13:48;;;;;;;;;;;;;;;15.59;58.11;100763.56;2122933;27;19912;-66
2021/11/07 03:14:49;;;;;;;;;;;;;;;15.59;58.01;100760.84;2122972;27;20002;-66
2021/11/07 03:15:50;;;;;;;;;;;;;;;15.59;58.01;100769.00;2122986;27;19911;-67
2021/11/07 03:16:50;;;;;;;;;;;;;;;15.58;58.08;100760.00;2113566;28;20054;-66
2021/11/07 03:17:51;;;;;;;;;;;;;;;15.59;57.94;100771.72;2099523;28;19917;-66
2021/11/07 03:18:54;;;;;;;;;;;;;;;15.59;58.01;100769.00;2114496;28;19916;-66
2021/11/07 03:19:54;;;;;;;;;;;;;;;15.60;58.03;100776.16;2122253;27;19921;-66
2021/11/07 03:20:55;;;;;;;;;;;;;;;15.59;58.01;100775.31;2123454;27;20416;-66
2021/11/07 03:21:56;;;;;;;;;;;;;;;15.60;57.92;100776.16;2107270;28;19920;-66
2021/11/07 03:22:57;;;;;;;;;;;;;;;15.60;57.92;100768.00;2111939;28;19943;-66
2021/11/07 03:23:58;;;;;;;;;;;;;;;15.60;58.05;100763.44;2114032;28;19912;-67
2021/11/07 03:24:59;;;;;;;;;;;;;;;15.59;57.94;100763.56;2113946;28;19945;-66
2021/11/07 03:26:07;;;;;;;;;;;;;;;15.59;57.92;100764.44;2116649;27;19916;-66
2021/11/07 03:27:17;;;;;;;;;;;;;;;15.59;57.93;100760.84;2117718;27;20275;-66
2021/11/07 03:28:17;;;;;;;;;;;;;;;15.59;58.13;100767.16;2114318;28;19915;-67
2021/11/07 03:29:20;;;;;;;;;;;;;;;15.59;58.08;100760.84;2113361;28;19973;-67
2021/11/07 03:30:40;;;;;;;;;;;;;;;15.58;57.95;100748.22;2118577;27;20104;-66
2021/11/07 03:32:52;;;;;;;;;;;;;;;15.59;58.07;100758.13;2123000;27;19922;-66
2021/11/07 03:33:56;;;;;;;;;;;;;;;15.59;58.11;100769.00;2119757;27;19918;-66
2021/11/07 03:35:00;;;;;;;;;;;;;;;15.58;58.05;100762.72;2123110;27;19983;-66
2021/11/07 03:36:02;;;;;;;;;;;;;;;15.59;58.02;100760.84;2117071;27;19965;-67
2021/11/07 03:37:05;;;;;;;;;;;;;;;15.58;57.98;100757.28;2122883;27;19972;-67
2021/11/07 03:38:06;;;;;;;;;;;;;;;15.58;57.90;100762.72;2123197;27;19962;-66
2021/11/07 03:39:06;;;;;;;;;;;;;;;15.58;58.09;100767.25;2122084;27;19919;-66
2021/11/07 03:40:09;;;;;;;;;;;;;;;15.58;57.99;100767.25;2122165;27;19939;-66
2021/11/07 03:41:10;;;;;;;;;;;;;;;15.57;58.00;100770.97;2123363;27;19915;-66
2021/11/07 03:42:11;;;;;;;;;;;;;;;15.57;58.06;100771.81;2122529;27;19980;-66
2021/11/07 03:43:12;;;;;;;;;;;;;;;15.58;58.08;100770.88;2113599;28;20456;-67
2021/11/07 03:44:13;;;;;;;;;;;;;;;15.58;58.10;100767.25;2113844;28;19938;-66
2021/11/07 03:45:13;;;;;;;;;;;;;;;15.59;58.17;100774.44;2112766;28;19915;-67
2021/11/07 03:46:14;;;;;;;;;;;;;;;15.58;58.09;100767.25;2114848;28;20286;-66
2021/11/07 03:47:15;;;;;;;;;;;;;;;15.58;58.08;100773.59;2116268;27;19918;-67
2021/11/07 03:48:15;;;;;;;;;;;;;;;15.58;58.01;100768.16;2116912;27;19926;-66
2021/11/07 03:49:16;;;;;;;;;;;;;;;15.57;58.05;100766.38;2123956;27;19911;-66
2021/11/07 03:50:17;;;;;;;;;;;;;;;15.57;58.02;100771.81;2121977;27;20049;-66
2021/11/07 03:51:18;;;;;;;;;;;;;;;15.57;58.02;100771.81;2123480;27;20396;-66
2021/11/07 03:52:18;;;;;;;;;;;;;;;15.57;58.05;100781.84;2122173;27;20299;-67
2021/11/07 03:53:19;;;;;;;;;;;;;;;15.58;57.97;100772.69;2121942;27;19933;-66
2021/11/07 03:54:22;;;;;;;;;;;;;;;15.57;58.11;100776.41;2114735;28;19912;-67
2021/11/07 03:55:23;;;;;;;;;;;;;;;15.57;58.11;100766.38;2113686;27;19912;-66
2021/11/07 03:56:24;;;;;;;;;;;;;;;15.57;58.06;100779.13;2123007;27;19919;-66
2021/11/07 03:57:24;;;;;;;;;;;;;;;15.56;58.18;100774.69;2122185;27;19916;-66
2021/11/07 03:58:24;;;;;;;;;;;;;;;15.55;58.00;100776.50;2122261;27;19961;-67
2021/11/07 03:59:25;;;;;;;;;;;;;;;15.56;58.05;100761.94;2123034;27;19916;-66
2021/11/07 04:00:25;;;;;;;;;;;;;;;15.56;58.02;100763.81;2127947;27;19923;-66
2021/11/07 04:01:26;;;;;;;;;;;;;;;15.57;58.05;100770.97;2115797;27;19966;-67
2021/11/07 04:02:27;;;;;;;;;;;;;;;15.56;58.07;100763.81;2114331;28;19961;-66
2021/11/07 04:03:27;;;;;;;;;;;;;;;15.56;58.12;100763.81;2119766;27;19912;-66
2021/11/07 04:04:28;;;;;;;;;;;;;;;15.56;58.11;100767.38;2114678;27;20583;-67
2021/11/07 04:05:28;;;;;;;;;;;;;;;15.57;58.13;100765.53;2121108;27;19963;-67
2021/11/07 04:06:29;;;;;;;;;;;;;;;15.57;57.97;100762.81;2122433;27;19916;-66
2021/11/07 04:07:29;;;;;;;;;;;;;;;15.56;58.14;100769.25;2122885;27;20377;-66
2021/11/07 04:08:30;;;;;;;;;;;;;;;15.56;58.11;100775.53;2122975;27;20430;-67
2021/11/07 04:09:30;;;;;;;;;;;;;;;15.55;58.06;100768.34;2122608;27;20316;-66
2021/11/07 04:10:31;;;;;;;;;;;;;;;15.56;58.07;100769.25;2122960;27;19937;-66
2021/11/07 04:11:31;;;;;;;;;;;;;;;15.56;58.05;100770.09;2119253;27;19974;-66
2021/11/07 04:12:31;;;;;;;;;;;;;;;15.56;58.05;100766.53;2122964;27;19911;-66
2021/11/07 04:13:32;;;;;;;;;;;;;;;15.57;58.03;100765.53;2122521;27;19912;-66
2021/11/07 04:14:34;;;;;;;;;;;;;;;15.55;57.98;100770.19;2123002;27;19960;-66
2021/11/07 04:15:35;;;;;;;;;;;;;;;15.54;58.14;100766.63;2122838;27;19912;-66
2021/11/07 04:16:37;;;;;;;;;;;;;;;15.55;57.96;100767.47;2122885;27;19995;-66
2021/11/07 04:17:37;;;;;;;;;;;;;;;15.55;58.00;100775.63;2116108;27;19912;-67
2021/11/07 04:18:39;;;;;;;;;;;;;;;15.56;58.05;100780.09;2122263;27;19915;-67
2021/11/07 04:19:39;;;;;;;;;;;;;;;15.56;58.01;100774.69;2122606;27;19920;-67
2021/11/07 04:20:39;;;;;;;;;;;;;;;15.55;58.00;100775.63;2122417;27;19919;-66
2021/11/07 04:21:42;;;;;;;;;;;;;;;15.56;57.96;100785.53;2122271;27;20437;-66
2021/11/07 04:22:43;;;;;;;;;;;;;;;15.56;58.08;100788.25;2112249;28;19916;-66
2021/11/07 04:23:43;;;;;;;;;;;;;;;15.56;58.06;100790.97;2108009;28;20018;-67
2021/11/07 04:24:43;;;;;;;;;;;;;;;15.55;58.08;100787.38;2122907;27;20375;-66
2021/11/07 04:25:44;;;;;;;;;;;;;;;15.56;57.97;100788.25;2122284;27;19915;-67
2021/11/07 04:26:44;;;;;;;;;;;;;;;15.55;57.92;100784.66;2121077;27;20006;-67
2021/11/07 04:27:45;;;;;;;;;;;;;;;15.55;57.97;100781.94;2116915;27;20389;-67
2021/11/07 04:28:45;;;;;;;;;;;;;;;15.56;57.97;100782.81;2122842;27;19972;-67
2021/11/07 04:29:45;;;;;;;;;;;;;;;15.55;57.98;100783.78;2123200;27;19964;-67
2021/11/07 04:30:46;;;;;;;;;;;;;;;15.55;58.03;100778.34;2122278;27;19960;-67
2021/11/07 04:31:46;;;;;;;;;;;;;;;15.54;57.92;100782.94;2121848;27;19915;-67
2021/11/07 04:32:47;;;;;;;;;;;;;;;15.55;57.94;100784.66;2122866;27;20315;-67
2021/11/07 04:33:47;;;;;;;;;;;;;;;15.54;58.02;100787.50;2124258;27;20389;-67
2021/11/07 04:34:47;;;;;;;;;;;;;;;15.55;58.00;100789.22;2122534;27;20378;-67
2021/11/07 04:35:48;;;;;;;;;;;;;;;15.54;58.05;100796.50;2107694;28;19916;-67
2021/11/07 04:36:48;;;;;;;;;;;;;;;15.55;57.95;100786.50;2113565;28;20031;-66
2021/11/07 04:37:49;;;;;;;;;;;;;;;15.53;57.97;100785.75;2122733;27;19915;-67
2021/11/07 04:38:49;;;;;;;;;;;;;;;15.54;58.05;100782.94;2122385;27;19916;-67
2021/11/07 04:39:59;;;;;;;;;;;;;;;15.54;57.90;100787.50;2120576;27;20368;-67
2021/11/07 04:40:59;;;;;;;;;;;;;;;15.53;58.03;100792.06;2122655;27;20460;-67
2021/11/07 04:41:59;;;;;;;;;;;;;;;15.54;58.03;100793.78;2122779;27;20341;-67
2021/11/07 04:43:00;;;;;;;;;;;;;;;15.54;57.94;100787.50;2120734;27;19923;-67
2021/11/07 04:44:00;;;;;;;;;;;;;;;15.54;57.94;100787.50;2122677;27;19921;-67
2021/11/07 04:45:01;;;;;;;;;;;;;;;15.55;58.02;100797.38;2123014;27;19922;-66
2021/11/07 04:46:03;;;;;;;;;;;;;;;15.55;58.00;100800.09;2122901;27;19956;-67
2021/11/07 04:47:04;;;;;;;;;;;;;;;15.55;57.95;100800.09;2122339;27;19919;-67
2021/11/07 04:48:04;;;;;;;;;;;;;;;15.54;57.98;100798.38;2122103;27;20362;-67
2021/11/07 04:49:05;;;;;;;;;;;;;;;15.55;58.06;100800.09;2122860;27;19926;-67
2021/11/07 04:50:06;;;;;;;;;;;;;;;15.54;57.95;100792.94;2120676;27;19919;-67
2021/11/07 04:51:06;;;;;;;;;;;;;;;15.55;58.00;100789.22;2120653;27;20381;-67
2021/11/07 04:52:07;;;;;;;;;;;;;;;15.54;57.90;100793.78;2120210;27;20326;-67
2021/11/07 04:53:10;;;;;;;;;;;;;;;15.55;57.85;100794.66;2116508;27;19923;-67
2021/11/07 04:54:11;;;;;;;;;;;;;;;15.55;57.99;100794.66;2115005;27;20349;-67
2021/11/07 04:55:11;;;;;;;;;;;;;;;15.54;57.98;100793.78;2122251;27;19911;-67
2021/11/07 04:56:12;;;;;;;;;;;;;;;15.54;57.96;100792.94;2121885;27;19960;-67
2021/11/07 04:57:14;;;;;;;;;;;;;;;15.54;57.96;100787.50;2111267;28;20010;-67
2021/11/07 04:58:15;;;;;;;;;;;;;;;15.54;57.95;100776.63;2113498;28;20452;-67
2021/11/07 04:59:15;;;;;;;;;;;;;;;15.53;57.94;100778.47;2113438;28;20154;-67
2021/11/07 05:00:17;;;;;;;;;;;;;;;15.53;58.06;100781.19;2118776;27;20487;-67
2021/11/07 05:01:18;;;;;;;;;;;;;;;15.53;58.03;100786.63;2117097;27;19912;-67
2021/11/07 05:02:18;;;;;;;;;;;;;;;15.53;58.10;100783.03;2122556;27;20393;-66
2021/11/07 05:03:19;;;;;;;;;;;;;;;15.53;58.00;100774.88;2121974;27;19959;-67
2021/11/07 05:04:19;;;;;;;;;;;;;;;15.53;58.03;100772.16;2122179;27;19972;-67
2021/11/07 05:05:20;;;;;;;;;;;;;;;15.52;57.93;100768.56;2123053;27;19936;-67
2021/11/07 05:06:22;;;;;;;;;;;;;;;15.53;58.05;100774.88;2121179;27;20378;-67
2021/11/07 05:07:22;;;;;;;;;;;;;;;15.53;57.94;100780.31;2122854;27;20052;-67
2021/11/07 05:08:23;;;;;;;;;;;;;;;15.52;58.06;100775.88;2122659;27;19912;-67
2021/11/07 05:09:24;;;;;;;;;;;;;;;15.52;58.07;100781.31;2119584;27;20463;-66
2021/11/07 05:10:24;;;;;;;;;;;;;;;15.52;57.99;100778.59;2115706;27;20390;-67
2021/11/07 05:11:25;;;;;;;;;;;;;;;15.51;58.02;100780.44;2121009;27;19989;-66
2021/11/07 05:12:28;;;;;;;;;;;;;;;15.52;58.06;100778.59;2122262;27;19961;-66
2021/11/07 05:13:28;;;;;;;;;;;;;;;15.52;58.02;100778.59;2121513;27;19915;-66
2021/11/07 05:14:28;;;;;;;;;;;;;;;15.52;58.02;100776.72;2118371;27;19964;-66
2021/11/07 05:15:29;;;;;;;;;;;;;;;15.52;58.10;100774.00;2122662;27;19915;-66
2021/11/07 05:16:29;;;;;;;;;;;;;;;15.51;58.12;100769.56;2105924;28;20003;-66
2021/11/07 05:17:30;;;;;;;;;;;;;;;15.52;58.01;100768.56;2105472;28;19923;-66
2021/11/07 05:18:30;;;;;;;;;;;;;;;15.52;57.94;100778.59;2121830;27;20385;-66
2021/11/07 05:19:32;;;;;;;;;;;;;;;15.51;58.02;100782.28;2121824;27;19970;-67
2021/11/07 05:20:33;;;;;;;;;;;;;;;15.52;57.93;100775.88;2115825;27;19912;-66
2021/11/07 05:21:33;;;;;;;;;;;;;;;15.52;57.96;100784.00;2120727;27;19922;-66
2021/11/07 05:22:34;;;;;;;;;;;;;;;15.50;58.06;100789.53;2111580;28;19916;-66
2021/11/07 05:23:41;;;;;;;;;;;;;;;15.51;58.00;100790.44;2111666;28;19912;-66
2021/11/07 05:24:41;;;;;;;;;;;;;;;15.50;58.16;100785.97;2122860;27;19971;-67
2021/11/07 05:25:42;;;;;;;;;;;;;;;15.51;57.99;100787.72;2121539;27;20682;-66
2021/11/07 05:26:43;;;;;;;;;;;;;;;15.51;57.95;100787.72;2119719;27;20300;-66
2021/11/07 05:27:43;;;;;;;;;;;;;;;15.50;57.94;100778.69;2114154;28;19911;-66
2021/11/07 05:28:44;;;;;;;;;;;;;;;15.51;58.04;100779.56;2119704;27;19973;-66
2021/11/07 05:29:44;;;;;;;;;;;;;;;15.51;58.07;100779.56;2122258;27;19958;-66
2021/11/07 05:30:45;;;;;;;;;;;;;;;15.51;58.08;100776.84;2116383;27;19915;-59
2021/11/07 05:31:45;;;;;;;;;;;;;;;15.52;58.06;100775.88;2117440;28;19923;-59
2021/11/07 05:32:46;;;;;;;;;;;;;;;15.50;57.96;100780.53;2123954;27;19959;-59
2021/11/07 05:33:46;;;;;;;;;;;;;;;15.51;58.03;100776.84;2123900;27;20289;-58
2021/11/07 05:34:47;;;;;;;;;;;;;;;15.50;58.10;100775.09;2123992;27;19917;-59
2021/11/07 05:35:47;;;;;;;;;;;;;;;15.50;58.11;100783.25;2124011;27;19911;-59
2021/11/07 05:36:47;;;;;;;;;;;;;;;15.50;58.13;100785.97;2120910;27;20381;-58
2021/11/07 05:37:48;;;;;;;;;;;;;;;15.50;57.98;100772.38;2115083;28;19912;-59
2021/11/07 05:38:49;;;;;;;;;;;;;;;15.51;58.06;100788.59;2117303;28;20373;-59
2021/11/07 05:39:49;;;;;;;;;;;;;;;15.50;58.03;100783.25;2118764;27;20416;-59
2021/11/07 05:40:51;;;;;;;;;;;;;;;15.50;58.04;100777.81;2124095;27;19911;-59
2021/11/07 05:41:51;;;;;;;;;;;;;;;15.50;58.12;100778.69;2123821;27;19915;-58
2021/11/07 05:42:51;;;;;;;;;;;;;;;15.50;58.03;100780.53;2123618;28;19919;-59
2021/11/07 05:43:52;;;;;;;;;;;;;;;15.50;58.01;100780.53;2123744;27;19934;-59
2021/11/07 05:44:52;;;;;;;;;;;;;;;15.49;57.97;100776.94;2121210;27;19912;-59
2021/11/07 05:45:53;;;;;;;;;;;;;;;15.49;58.09;100774.25;2123861;27;19911;-59
2021/11/07 05:46:53;;;;;;;;;;;;;;;15.50;58.01;100775.09;2123922;27;20379;-59
2021/11/07 05:47:54;;;;;;;;;;;;;;;15.50;58.00;100780.53;2123755;28;19947;-59
2021/11/07 05:48:54;;;;;;;;;;;;;;;15.50;58.04;100775.09;2123489;27;19912;-59
2021/11/07 05:49:55;;;;;;;;;;;;;;;15.49;58.03;100779.66;2123574;27;19911;-60
2021/11/07 05:50:57;;;;;;;;;;;;;;;15.49;58.04;100782.38;2123875;27;19916;-59
2021/11/07 05:51:57;;;;;;;;;;;;;;;15.49;58.17;100773.38;2123740;28;19912;-59